Time;durP1;ratioP1;P1;durP2;ratioP2;P2;SDS_P1;SDS_P2;PMS_P1;PMS_P2;Temp;Humidity;BMP_temperature;BMP_pressure;BME280_temperature;BME280_humidity;BME280_pressure;Samples;Min_cycle;Max_cycle;Signal;HPM_P1;HPM_P2
2022/01/11 00:00:55;;;;;;;60.15;30.65;;;;;;;;;;5065908;28;20034;-46
2022/01/11 00:03:22;;;;;;;45.88;24.15;;;;;;;;;;5065946;28;20064;-51
2022/01/11 00:06:02;;;;;;;44.47;22.73;;;;;;;;;;5063209;28;20031;-48
2022/01/11 00:08:32;;;;;;;49.05;25.50;;;;;;;;;;5089616;28;20032;-46
2022/01/11 00:11:05;;;;;;;54.33;27.58;;;;;;;;;;5093847;28;20028;-47
2022/01/11 00:13:32;;;;;;;39.65;20.10;;;;;;;;;;5093773;28;20032;-48
2022/01/11 00:15:58;;;;;;;34.20;19.30;;;;;;;;;;5093904;28;20024;-48
2022/01/11 00:18:25;;;;;;;48.90;24.80;;;;;;;;;;5094395;28;20453;-50
2022/01/11 00:20:51;;;;;;;65.82;34.60;;;;;;;;;;5093638;28;20534;-48
2022/01/11 00:25:44;;;;;;;50.38;27.95;;;;;;;;;;5093846;28;20024;-48
2022/01/11 00:28:11;;;;;;;43.30;22.77;;;;;;;;;;5092299;28;20043;-49
2022/01/11 00:30:40;;;;;;;40.88;21.55;;;;;;;;;;5093711;28;20028;-49
2022/01/11 00:33:07;;;;;;;36.17;19.63;;;;;;;;;;5093446;28;20457;-50
2022/01/11 00:35:56;;;;;;;38.22;20.73;;;;;;;;;;5093830;28;20166;-51
2022/01/11 00:38:23;;;;;;;36.78;20.30;;;;;;;;;;5092715;28;20120;-50
2022/01/11 00:40:51;;;;;;;31.80;17.35;;;;;;;;;;5093496;28;20103;-48
2022/01/11 00:43:18;;;;;;;32.60;17.13;;;;;;;;;;5093489;28;20064;-48
2022/01/11 00:45:44;;;;;;;33.25;16.70;;;;;;;;;;5093792;28;20024;-48
2022/01/11 00:48:10;;;;;;;36.38;18.15;;;;;;;;;;5093497;28;20062;-48
2022/01/11 00:50:39;;;;;;;32.55;17.23;;;;;;;;;;5093280;28;20016;-48
2022/01/11 00:53:11;;;;;;;30.33;15.85;;;;;;;;;;5093452;28;20043;-49
2022/01/11 00:55:38;;;;;;;33.05;16.20;;;;;;;;;;5093543;28;20397;-48
2022/01/11 00:58:04;;;;;;;29.15;14.57;;;;;;;;;;5093039;28;20101;-47
2022/01/11 01:00:31;;;;;;;31.63;16.90;;;;;;;;;;5093294;28;20028;-48
2022/01/11 01:02:57;;;;;;;31.63;16.67;;;;;;;;;;5093226;28;20422;-46
2022/01/11 01:05:23;;;;;;;31.98;16.42;;;;;;;;;;5093277;28;20012;-47
2022/01/11 01:07:49;;;;;;;32.33;16.58;;;;;;;;;;5093247;28;20028;-48
2022/01/11 01:10:25;;;;;;;28.67;15.57;;;;;;;;;;5093382;28;20056;-48
2022/01/11 01:12:55;;;;;;;29.13;15.02;;;;;;;;;;5093442;28;20043;-48
2022/01/11 01:15:21;;;;;;;35.80;16.10;;;;;;;;;;5093186;28;20024;-48
2022/01/11 01:17:47;;;;;;;34.05;17.80;;;;;;;;;;5093081;28;20016;-47
2022/01/11 01:20:14;;;;;;;24.80;13.77;;;;;;;;;;5093210;28;20040;-49
2022/01/11 01:22:40;;;;;;;28.88;15.18;;;;;;;;;;5091294;28;20465;-49
2022/01/11 01:25:06;;;;;;;26.60;15.05;;;;;;;;;;5093005;28;20107;-48
2022/01/11 01:27:35;;;;;;;24.55;13.60;;;;;;;;;;5092948;28;20145;-48
2022/01/11 01:30:01;;;;;;;26.55;14.85;;;;;;;;;;5093046;28;20485;-48
2022/01/11 01:32:30;;;;;;;30.27;14.70;;;;;;;;;;5093002;28;20074;-47
2022/01/11 01:35:01;;;;;;;25.45;14.07;;;;;;;;;;5092907;28;20023;-47
2022/01/11 01:37:27;;;;;;;28.60;14.60;;;;;;;;;;5092869;28;20431;-47
2022/01/11 01:39:53;;;;;;;25.33;14.35;;;;;;;;;;5093038;28;20058;-47
2022/01/11 01:42:27;;;;;;;28.20;14.75;;;;;;;;;;5093271;28;20028;-48
2022/01/11 01:44:54;;;;;;;26.50;14.10;;;;;;;;;;5092989;28;20039;-48
2022/01/11 01:47:20;;;;;;;27.58;14.73;;;;;;;;;;5092863;28;20023;-49
2022/01/11 01:49:46;;;;;;;27.20;13.55;;;;;;;;;;5095998;28;20028;-48
2022/01/11 01:52:14;;;;;;;29.02;15.25;;;;;;;;;;5096368;28;20020;-49
2022/01/11 01:54:40;;;;;;;27.10;13.80;;;;;;;;;;5096807;28;20059;-47
2022/01/11 01:57:09;;;;;;;26.67;14.00;;;;;;;;;;5096435;28;20029;-47
2022/01/11 01:59:35;;;;;;;27.17;14.77;;;;;;;;;;5096542;28;20032;-48
2022/01/11 02:02:02;;;;;;;24.38;13.40;;;;;;;;;;5096502;28;20054;-47
2022/01/11 02:04:28;;;;;;;27.63;14.70;;;;;;;;;;5096464;28;20077;-46
2022/01/11 02:06:54;;;;;;;27.38;14.68;;;;;;;;;;5096265;28;20047;-47
2022/01/11 02:09:20;;;;;;;27.00;13.13;;;;;;;;;;5096336;28;20393;-48
2022/01/11 02:11:47;;;;;;;25.52;13.65;;;;;;;;;;5096262;28;20020;-47
2022/01/11 02:14:16;;;;;;;26.92;13.52;;;;;;;;;;5096241;28;20051;-48
2022/01/11 02:16:44;;;;;;;27.88;13.93;;;;;;;;;;5096249;28;20087;-47
2022/01/11 02:19:10;;;;;;;25.33;14.10;;;;;;;;;;5096369;28;20056;-48
2022/01/11 02:21:38;;;;;;;23.35;12.05;;;;;;;;;;5095948;28;20024;-48
2022/01/11 02:24:04;;;;;;;24.70;13.80;;;;;;;;;;5096017;28;20376;-48
2022/01/11 02:26:31;;;;;;;26.85;14.50;;;;;;;;;;5096292;28;20024;-48
2022/01/11 02:28:57;;;;;;;28.63;15.20;;;;;;;;;;5096011;28;20136;-49
2022/01/11 02:31:23;;;;;;;26.55;13.88;;;;;;;;;;5095883;28;20073;-48
2022/01/11 02:33:51;;;;;;;25.58;13.90;;;;;;;;;;5096092;28;20381;-48
2022/01/11 02:36:22;;;;;;;27.23;14.35;;;;;;;;;;5095715;28;20017;-49
2022/01/11 02:38:49;;;;;;;26.27;14.23;;;;;;;;;;5095897;28;20397;-47
2022/01/11 02:41:15;;;;;;;25.95;13.23;;;;;;;;;;5095860;28;20025;-47
2022/01/11 02:43:42;;;;;;;26.17;13.70;;;;;;;;;;5095882;28;20023;-47
2022/01/11 02:46:09;;;;;;;26.77;13.27;;;;;;;;;;5095612;28;20028;-48
2022/01/11 02:48:35;;;;;;;23.80;13.43;;;;;;;;;;5095661;28;20035;-48
2022/01/11 02:51:01;;;;;;;25.95;13.77;;;;;;;;;;5095467;28;20028;-48
2022/01/11 02:53:27;;;;;;;25.38;12.55;;;;;;;;;;5095440;28;20016;-48
2022/01/11 02:55:53;;;;;;;23.02;13.05;;;;;;;;;;5095472;28;20538;-48
2022/01/11 02:58:19;;;;;;;21.75;12.75;;;;;;;;;;5095337;28;20489;-47
2022/01/11 03:00:47;;;;;;;28.42;14.27;;;;;;;;;;5094476;28;20125;-47
2022/01/11 03:03:22;;;;;;;35.60;15.57;;;;;;;;;;5095481;28;20103;-47
2022/01/11 03:05:50;;;;;;;39.65;17.98;;;;;;;;;;5095041;28;20118;-47
2022/01/11 03:08:19;;;;;;;37.80;18.38;;;;;;;;;;5095341;28;20513;-47
2022/01/11 03:10:46;;;;;;;42.75;20.60;;;;;;;;;;5095281;28;20176;-47
2022/01/11 03:13:14;;;;;;;42.65;19.70;;;;;;;;;;5095016;28;20032;-47
2022/01/11 03:15:40;;;;;;;34.78;18.38;;;;;;;;;;5094967;28;20054;-47
2022/01/11 03:18:07;;;;;;;40.35;19.90;;;;;;;;;;5094885;28;20040;-47
2022/01/11 03:20:33;;;;;;;32.13;17.13;;;;;;;;;;5094923;28;20063;-47
2022/01/11 03:23:00;;;;;;;28.58;15.25;;;;;;;;;;5094973;28;20373;-47
2022/01/11 03:25:28;;;;;;;28.00;14.85;;;;;;;;;;5094894;28;20030;-48
2022/01/11 03:27:54;;;;;;;23.33;12.65;;;;;;;;;;5094535;28;20036;-47
2022/01/11 03:30:21;;;;;;;23.10;13.27;;;;;;;;;;5094817;28;20089;-47
2022/01/11 03:32:49;;;;;;;23.15;13.65;;;;;;;;;;5094697;28;20027;-47
2022/01/11 03:35:16;;;;;;;27.67;13.35;;;;;;;;;;5094812;28;20041;-48
2022/01/11 03:37:43;;;;;;;27.48;14.82;;;;;;;;;;5094714;28;20077;-48
2022/01/11 03:40:11;;;;;;;27.83;13.85;;;;;;;;;;5094691;28;20036;-48
2022/01/11 03:42:39;;;;;;;26.17;14.93;;;;;;;;;;5094621;28;20016;-49
2022/01/11 03:45:07;;;;;;;25.55;14.20;;;;;;;;;;5094484;28;20031;-50
2022/01/11 03:47:33;;;;;;;23.63;12.65;;;;;;;;;;5094575;28;20077;-47
2022/01/11 03:49:59;;;;;;;22.50;12.18;;;;;;;;;;5094334;28;20066;-47
2022/01/11 03:52:25;;;;;;;24.38;13.13;;;;;;;;;;5094506;28;20396;-48
2022/01/11 03:57:18;;;;;;;23.42;12.40;;;;;;;;;;5094294;28;20547;-47
2022/01/11 03:59:44;;;;;;;20.88;11.93;;;;;;;;;;5094128;28;20040;-48
2022/01/11 04:02:10;;;;;;;22.80;12.30;;;;;;;;;;5094258;28;20020;-46
2022/01/11 04:04:36;;;;;;;22.50;12.05;;;;;;;;;;5093964;28;20024;-47
2022/01/11 04:07:03;;;;;;;25.33;12.07;;;;;;;;;;5094087;28;20047;-48
2022/01/11 04:09:29;;;;;;;22.92;12.18;;;;;;;;;;5094219;28;20051;-50
2022/01/11 04:11:55;;;;;;;21.45;12.25;;;;;;;;;;5093857;28;20358;-47
2022/01/11 04:14:25;;;;;;;22.48;11.20;;;;;;;;;;5094085;28;20370;-47
2022/01/11 04:16:56;;;;;;;20.50;12.45;;;;;;;;;;5093875;28;20039;-48
2022/01/11 04:19:22;;;;;;;21.08;11.18;;;;;;;;;;5093740;28;20413;-47
2022/01/11 04:21:50;;;;;;;24.42;12.15;;;;;;;;;;5093661;28;20020;-48
2022/01/11 04:24:16;;;;;;;19.25;11.63;;;;;;;;;;5093914;28;20030;-48
2022/01/11 04:26:42;;;;;;;18.85;11.20;;;;;;;;;;5093869;28;20024;-48
2022/01/11 04:29:09;;;;;;;23.80;12.82;;;;;;;;;;5093724;28;20499;-47
2022/01/11 04:31:35;;;;;;;22.95;12.38;;;;;;;;;;5093645;28;20035;-47
2022/01/11 04:34:01;;;;;;;20.00;12.38;;;;;;;;;;5093567;28;20024;-47
2022/01/11 04:36:27;;;;;;;22.10;12.02;;;;;;;;;;5093540;28;20016;-48
2022/01/11 04:38:54;;;;;;;22.27;11.63;;;;;;;;;;5093560;28;20036;-48
2022/01/11 04:41:20;;;;;;;22.60;11.18;;;;;;;;;;5093564;28;20020;-48
2022/01/11 04:43:46;;;;;;;20.40;11.13;;;;;;;;;;5093604;28;20028;-48
2022/01/11 04:46:18;;;;;;;19.48;11.30;;;;;;;;;;5093719;28;20145;-48
2022/01/11 04:48:44;;;;;;;20.33;11.75;;;;;;;;;;5093406;28;20366;-51
2022/01/11 04:51:10;;;;;;;21.02;11.55;;;;;;;;;;5093466;28;20024;-47
2022/01/11 04:53:36;;;;;;;20.88;11.25;;;;;;;;;;5092026;28;20081;-48
2022/01/11 04:56:02;;;;;;;21.73;11.50;;;;;;;;;;5093270;28;20465;-48
2022/01/11 04:58:28;;;;;;;18.33;10.88;;;;;;;;;;5093209;28;20385;-48
2022/01/11 05:00:54;;;;;;;21.60;11.68;;;;;;;;;;5093445;28;20028;-47
2022/01/11 05:03:20;;;;;;;22.02;12.18;;;;;;;;;;5093236;28;20043;-47
2022/01/11 05:05:49;;;;;;;20.85;11.27;;;;;;;;;;5093296;28;20024;-46
2022/01/11 05:08:15;;;;;;;21.70;11.65;;;;;;;;;;5093279;28;20497;-48
2022/01/11 05:10:44;;;;;;;21.35;11.40;;;;;;;;;;5093493;28;20077;-48
2022/01/11 05:13:11;;;;;;;26.65;14.43;;;;;;;;;;5093281;28;20052;-48
2022/01/11 05:15:38;;;;;;;30.02;17.70;;;;;;;;;;5093158;28;20111;-48
2022/01/11 05:18:07;;;;;;;37.53;20.58;;;;;;;;;;5093135;28;20103;-48
2022/01/11 05:20:33;;;;;;;23.77;14.07;;;;;;;;;;5093246;28;20036;-47
2022/01/11 05:22:59;;;;;;;20.73;11.68;;;;;;;;;;5093503;28;20024;-48
2022/01/11 05:25:27;;;;;;;20.40;11.23;;;;;;;;;;5097193;28;20020;-47
2022/01/11 05:27:54;;;;;;;20.63;11.27;;;;;;;;;;5096896;28;20115;-48
2022/01/11 05:30:20;;;;;;;21.83;11.55;;;;;;;;;;5096992;28;20107;-48
2022/01/11 05:32:50;;;;;;;26.00;12.45;;;;;;;;;;5096853;28;20385;-46
2022/01/11 05:35:17;;;;;;;24.33;11.73;;;;;;;;;;5096970;28;20522;-47
2022/01/11 05:37:44;;;;;;;37.08;20.15;;;;;;;;;;5096836;28;20532;-48
2022/01/11 05:40:11;;;;;;;29.98;16.30;;;;;;;;;;5096960;28;20089;-51
2022/01/11 05:42:38;;;;;;;32.33;16.75;;;;;;;;;;5096886;28;20023;-57
2022/01/11 05:45:05;;;;;;;34.25;17.75;;;;;;;;;;5096772;28;20027;-47
2022/01/11 05:47:31;;;;;;;33.72;17.17;;;;;;;;;;5096618;28;20027;-55
2022/01/11 05:49:59;;;;;;;45.80;21.65;;;;;;;;;;5096538;28;20024;-46
2022/01/11 05:52:25;;;;;;;28.08;16.60;;;;;;;;;;5096441;28;20103;-50
2022/01/11 05:54:51;;;;;;;33.75;19.27;;;;;;;;;;5096722;28;20065;-52
2022/01/11 05:57:22;;;;;;;36.05;19.92;;;;;;;;;;5096775;28;20024;-51
2022/01/11 05:59:48;;;;;;;29.38;15.95;;;;;;;;;;5096376;28;20044;-51
2022/01/11 06:02:15;;;;;;;28.20;15.27;;;;;;;;;;5096276;28;20089;-48
2022/01/11 06:04:41;;;;;;;24.90;13.55;;;;;;;;;;5096539;28;20030;-47
2022/01/11 06:07:07;;;;;;;40.17;20.13;;;;;;;;;;5096215;28;20473;-51
2022/01/11 06:09:33;;;;;;;24.63;13.73;;;;;;;;;;5096325;28;20069;-47
2022/01/11 06:11:59;;;;;;;27.23;14.25;;;;;;;;;;5096400;28;20027;-53
2022/01/11 06:14:25;;;;;;;29.55;15.77;;;;;;;;;;5096313;28;20032;-52
2022/01/11 06:16:51;;;;;;;26.83;14.38;;;;;;;;;;5096022;28;20020;-51
2022/01/11 06:19:17;;;;;;;29.40;15.45;;;;;;;;;;5096003;28;20385;-52
2022/01/11 06:21:43;;;;;;;27.48;13.80;;;;;;;;;;5096310;28;20035;-53
2022/01/11 06:24:09;;;;;;;27.48;14.70;;;;;;;;;;5095972;28;20052;-52
2022/01/11 06:26:37;;;;;;;32.65;16.42;;;;;;;;;;5095969;28;20028;-47
2022/01/11 06:29:04;;;;;;;26.90;13.05;;;;;;;;;;5095900;28;20172;-53
2022/01/11 06:31:32;;;;;;;28.80;15.02;;;;;;;;;;5095786;28;20030;-51
2022/01/11 06:34:01;;;;;;;31.73;17.25;;;;;;;;;;5095692;28;20028;-52
2022/01/11 06:36:27;;;;;;;55.60;28.13;;;;;;;;;;5094746;28;20111;-51
2022/01/11 06:38:53;;;;;;;32.85;18.52;;;;;;;;;;5095617;28;20063;-48
2022/01/11 06:41:19;;;;;;;26.45;14.50;;;;;;;;;;5095856;28;20024;-47
2022/01/11 06:43:45;;;;;;;33.90;17.17;;;;;;;;;;5095699;28;20032;-48
2022/01/11 06:46:11;;;;;;;26.30;15.38;;;;;;;;;;5095429;28;20020;-49
2022/01/11 06:48:37;;;;;;;35.63;17.02;;;;;;;;;;5095619;28;20035;-49
2022/01/11 06:51:04;;;;;;;34.75;17.88;;;;;;;;;;5095597;28;20020;-49
2022/01/11 06:53:31;;;;;;;40.30;20.13;;;;;;;;;;5095332;28;20024;-49
2022/01/11 06:55:57;;;;;;;29.58;15.75;;;;;;;;;;5095370;28;20497;-48
2022/01/11 06:58:23;;;;;;;42.17;22.92;;;;;;;;;;5095460;28;20051;-48
2022/01/11 07:00:49;;;;;;;33.75;19.48;;;;;;;;;;5095357;28;20035;-48
2022/01/11 07:03:15;;;;;;;51.75;27.77;;;;;;;;;;5095190;28;20027;-48
2022/01/11 07:05:42;;;;;;;51.92;24.70;;;;;;;;;;5095217;28;20028;-49
2022/01/11 07:08:08;;;;;;;41.58;19.65;;;;;;;;;;5095127;28;20385;-49
2022/01/11 07:10:34;;;;;;;32.88;17.42;;;;;;;;;;5095144;28;20024;-49
2022/01/11 07:13:02;;;;;;;31.92;15.88;;;;;;;;;;5095044;28;20047;-48
2022/01/11 07:15:28;;;;;;;31.52;15.65;;;;;;;;;;5095222;28;20081;-49
2022/01/11 07:17:54;;;;;;;34.65;17.05;;;;;;;;;;5094770;28;20062;-48
2022/01/11 07:20:22;;;;;;;30.77;16.05;;;;;;;;;;5095028;28;20036;-47
2022/01/11 07:22:48;;;;;;;25.50;14.02;;;;;;;;;;5094963;28;20016;-48
2022/01/11 07:25:15;;;;;;;30.27;14.15;;;;;;;;;;5094865;28;20104;-48
2022/01/11 07:27:41;;;;;;;30.70;15.43;;;;;;;;;;5094547;28;20089;-47
2022/01/11 07:30:07;;;;;;;26.98;15.00;;;;;;;;;;5094791;28;20090;-48
2022/01/11 07:32:36;;;;;;;28.23;13.45;;;;;;;;;;5094587;28;20477;-48
2022/01/11 07:35:03;;;;;;;29.13;14.75;;;;;;;;;;5094635;28;20077;-48
2022/01/11 07:37:29;;;;;;;25.33;13.45;;;;;;;;;;5094661;28;20389;-49
2022/01/11 07:39:55;;;;;;;33.45;18.60;;;;;;;;;;5094637;28;20043;-48
2022/01/11 07:42:22;;;;;;;26.13;14.82;;;;;;;;;;5094451;28;20028;-49
2022/01/11 07:44:51;;;;;;;25.67;13.60;;;;;;;;;;5094428;28;20388;-48
2022/01/11 07:47:18;;;;;;;25.83;13.30;;;;;;;;;;5093954;28;20027;-48
2022/01/11 07:49:44;;;;;;;28.10;14.00;;;;;;;;;;5094615;28;20024;-48
2022/01/11 07:52:10;;;;;;;29.63;14.27;;;;;;;;;;5094600;28;20023;-48
2022/01/11 07:54:36;;;;;;;24.77;12.75;;;;;;;;;;5094376;28;20077;-48
2022/01/11 07:57:02;;;;;;;27.45;13.40;;;;;;;;;;5094375;28;20035;-48
2022/01/11 07:59:28;;;;;;;24.17;12.13;;;;;;;;;;5094229;28;20051;-50
2022/01/11 08:01:54;;;;;;;26.02;13.52;;;;;;;;;;5094103;28;20031;-48
2022/01/11 08:04:20;;;;;;;23.60;12.00;;;;;;;;;;5094273;28;20035;-49
2022/01/11 08:06:46;;;;;;;22.00;12.95;;;;;;;;;;5094280;28;20024;-49
2022/01/11 08:09:15;;;;;;;20.73;11.75;;;;;;;;;;5094006;28;20020;-47
2022/01/11 08:11:41;;;;;;;24.45;13.80;;;;;;;;;;5094200;28;20024;-49
2022/01/11 08:14:07;;;;;;;25.30;14.25;;;;;;;;;;5094042;28;20020;-48
2022/01/11 08:16:36;;;;;;;27.13;14.02;;;;;;;;;;5093849;28;20024;-48
2022/01/11 08:19:02;;;;;;;30.77;15.55;;;;;;;;;;5094009;28;20093;-48
2022/01/11 08:21:28;;;;;;;23.70;12.35;;;;;;;;;;5094050;28;20099;-50
2022/01/11 08:23:54;;;;;;;25.55;13.82;;;;;;;;;;5093677;28;20477;-49
2022/01/11 08:26:20;;;;;;;24.90;12.00;;;;;;;;;;5093573;28;20021;-49
2022/01/11 08:28:46;;;;;;;31.13;15.18;;;;;;;;;;5093660;28;20056;-50
2022/01/11 08:31:12;;;;;;;24.98;12.43;;;;;;;;;;5093897;28;20020;-48
2022/01/11 08:33:39;;;;;;;24.25;12.88;;;;;;;;;;5093584;28;20024;-48
2022/01/11 08:36:06;;;;;;;23.05;12.55;;;;;;;;;;5093758;28;20385;-48
2022/01/11 08:38:32;;;;;;;25.20;13.23;;;;;;;;;;5093452;28;20127;-48
2022/01/11 08:40:58;;;;;;;27.65;13.55;;;;;;;;;;5093584;28;20040;-49
2022/01/11 08:43:24;;;;;;;22.20;11.70;;;;;;;;;;5093886;28;20048;-48
2022/01/11 08:45:50;;;;;;;24.30;13.13;;;;;;;;;;5093427;28;20035;-49
2022/01/11 08:48:16;;;;;;;28.25;15.10;;;;;;;;;;5093488;28;20390;-49
2022/01/11 08:50:42;;;;;;;24.88;14.10;;;;;;;;;;5093426;28;20024;-48
2022/01/11 08:53:08;;;;;;;23.83;12.25;;;;;;;;;;5093278;28;20024;-48
2022/01/11 08:55:40;;;;;;;23.85;12.48;;;;;;;;;;5093510;28;20473;-49
2022/01/11 08:58:08;;;;;;;25.63;12.15;;;;;;;;;;5092381;28;20040;-49
2022/01/11 09:00:34;;;;;;;25.85;12.55;;;;;;;;;;5093423;28;20493;-49
2022/01/11 09:03:00;;;;;;;28.17;13.10;;;;;;;;;;5093161;28;20024;-49
2022/01/11 09:05:26;;;;;;;26.65;14.15;;;;;;;;;;5093218;28;20028;-48
2022/01/11 09:07:53;;;;;;;29.27;16.13;;;;;;;;;;5093165;28;20044;-48
2022/01/11 09:10:20;;;;;;;33.28;16.75;;;;;;;;;;5093161;28;20028;-48
2022/01/11 09:12:46;;;;;;;51.83;25.75;;;;;;;;;;5093064;28;20016;-50
2022/01/11 09:15:12;;;;;;;42.20;21.75;;;;;;;;;;5093099;28;20028;-52
2022/01/11 09:17:38;;;;;;;50.03;24.58;;;;;;;;;;5093081;28;20021;-52
2022/01/11 09:20:06;;;;;;;27.65;14.50;;;;;;;;;;5092949;28;20070;-50
2022/01/11 09:22:32;;;;;;;28.95;16.23;;;;;;;;;;5093083;28;20016;-51
2022/01/11 09:24:59;;;;;;;32.15;17.80;;;;;;;;;;5092849;28;20521;-51
2022/01/11 09:27:25;;;;;;;37.78;21.50;;;;;;;;;;5092771;28;20028;-48
2022/01/11 09:29:51;;;;;;;37.05;19.45;;;;;;;;;;5092983;28;20032;-47
2022/01/11 09:32:18;;;;;;;67.88;34.17;;;;;;;;;;5092883;28;20031;-48
2022/01/11 09:34:44;;;;;;;71.28;37.17;;;;;;;;;;5092541;28;20089;-49
2022/01/11 09:37:11;;;;;;;46.55;24.73;;;;;;;;;;5089648;28;20021;-50
2022/01/11 09:39:39;;;;;;;36.50;20.27;;;;;;;;;;5092220;28;20024;-50
2022/01/11 09:42:06;;;;;;;32.92;17.40;;;;;;;;;;5092390;28;20024;-50
2022/01/11 09:44:39;;;;;;;27.55;15.25;;;;;;;;;;5089836;28;20078;-48
2022/01/11 09:47:06;;;;;;;28.90;15.80;;;;;;;;;;5092206;28;20024;-48
2022/01/11 09:49:32;;;;;;;39.80;17.38;;;;;;;;;;5092186;28;20558;-49
2022/01/11 09:52:01;;;;;;;40.88;21.42;;;;;;;;;;5092273;28;20461;-47
2022/01/11 09:54:28;;;;;;;32.83;17.90;;;;;;;;;;5092344;28;20056;-48
2022/01/11 09:56:54;;;;;;;40.60;20.27;;;;;;;;;;5092276;28;20525;-49
2022/01/11 09:59:20;;;;;;;26.25;14.70;;;;;;;;;;5092175;28;20040;-49
2022/01/11 10:01:46;;;;;;;31.73;16.17;;;;;;;;;;5092088;28;20027;-47
2022/01/11 10:04:13;;;;;;;55.88;16.60;;;;;;;;;;5092124;28;20489;-44
2022/01/11 10:06:42;;;;;;;23.10;12.98;;;;;;;;;;5091996;28;20063;-47
2022/01/11 10:09:20;;;;;;;29.63;15.20;;;;;;;;;;5092840;28;20470;-46
2022/01/11 10:11:50;;;;;;;29.98;16.10;;;;;;;;;;5096193;28;20043;-47
2022/01/11 10:14:19;;;;;;;32.53;17.30;;;;;;;;;;5096046;28;20024;-47
2022/01/11 10:16:46;;;;;;;40.20;22.38;;;;;;;;;;5095988;28;20488;-47
2022/01/11 10:19:22;;;;;;;38.30;20.30;;;;;;;;;;5096036;28;20081;-46
2022/01/11 10:21:50;;;;;;;40.50;22.35;;;;;;;;;;5096092;28;20119;-46
2022/01/11 10:24:23;;;;;;;35.55;18.17;;;;;;;;;;5095870;28;20378;-46
2022/01/11 10:26:49;;;;;;;41.72;19.80;;;;;;;;;;5095880;28;20028;-46
2022/01/11 10:29:24;;;;;;;38.78;19.88;;;;;;;;;;5095717;28;20051;-47
2022/01/11 10:31:51;;;;;;;41.15;20.73;;;;;;;;;;5095993;28;20030;-48
2022/01/11 10:34:25;;;;;;;39.78;21.10;;;;;;;;;;5095864;28;20028;-47
2022/01/11 10:36:51;;;;;;;30.42;17.50;;;;;;;;;;5095674;28;20146;-53
2022/01/11 10:39:29;;;;;;;28.27;15.10;;;;;;;;;;5094942;28;20024;-49
2022/01/11 10:41:57;;;;;;;42.88;21.48;;;;;;;;;;5092402;28;20020;-49
2022/01/11 10:44:41;;;;;;;37.30;18.70;;;;;;;;;;5094948;28;20078;-50
2022/01/11 10:47:08;;;;;;;38.70;18.85;;;;;;;;;;5094167;28;20024;-50
2022/01/11 10:49:35;;;;;;;40.58;20.88;;;;;;;;;;5094886;28;20070;-51
2022/01/11 10:52:20;;;;;;;52.08;25.55;;;;;;;;;;5095360;28;20475;-50
2022/01/11 10:54:46;;;;;;;57.47;30.90;;;;;;;;;;5094146;28;20039;-49
2022/01/11 10:57:20;;;;;;;57.60;30.77;;;;;;;;;;5094763;28;20024;-49
2022/01/11 11:00:06;;;;;;;24.42;13.82;;;;;;;;;;5094827;28;20039;-50
2022/01/11 11:02:32;;;;;;;22.25;12.43;;;;;;;;;;5094078;28;20052;-51
2022/01/11 11:05:00;;;;;;;30.15;15.77;;;;;;;;;;5095023;28;20020;-53
2022/01/11 11:07:27;;;;;;;28.80;14.90;;;;;;;;;;5095395;28;20101;-49
2022/01/11 11:09:54;;;;;;;32.38;16.23;;;;;;;;;;5094957;28;20473;-54
2022/01/11 11:12:22;;;;;;;31.65;16.50;;;;;;;;;;5094990;28;20466;-47
2022/01/11 11:14:49;;;;;;;44.55;23.35;;;;;;;;;;5095067;28;20060;-46
2022/01/11 11:17:27;;;;;;;32.38;18.38;;;;;;;;;;5093544;28;20397;-47
2022/01/11 11:19:56;;;;;;;42.63;21.63;;;;;;;;;;5094795;28;20039;-48
2022/01/11 11:22:25;;;;;;;44.40;21.10;;;;;;;;;;5094008;28;20029;-49
2022/01/11 11:24:54;;;;;;;37.05;20.05;;;;;;;;;;5094797;28;20023;-48
2022/01/11 11:27:21;;;;;;;41.28;20.92;;;;;;;;;;5094635;28;20054;-46
2022/01/11 11:29:48;;;;;;;39.53;18.65;;;;;;;;;;5094818;28;20052;-53
2022/01/11 11:32:17;;;;;;;31.75;17.40;;;;;;;;;;5093322;28;20028;-47
2022/01/11 11:34:45;;;;;;;48.03;23.65;;;;;;;;;;5093977;28;20073;-51
2022/01/11 11:37:14;;;;;;;46.08;23.08;;;;;;;;;;5093983;28;20028;-48
2022/01/11 11:39:41;;;;;;;37.53;20.17;;;;;;;;;;5093717;28;20064;-50
2022/01/11 11:42:10;;;;;;;56.63;29.98;;;;;;;;;;5094333;28;20377;-47
2022/01/11 11:44:44;;;;;;;42.72;23.75;;;;;;;;;;5093919;28;20042;-46
2022/01/11 11:47:10;;;;;;;43.97;23.67;;;;;;;;;;5092324;28;20081;-47
2022/01/11 11:49:48;;;;;;;41.80;22.27;;;;;;;;;;5093955;28;20045;-47
2022/01/11 11:52:27;;;;;;;42.60;21.20;;;;;;;;;;5092782;28;20020;-47
2022/01/11 11:54:54;;;;;;;38.60;20.33;;;;;;;;;;5092467;28;20028;-48
2022/01/11 11:57:21;;;;;;;38.13;20.35;;;;;;;;;;5093842;28;20074;-49
2022/01/11 12:00:11;;;;;;;42.53;20.98;;;;;;;;;;5094006;28;20047;-52
2022/01/11 12:02:44;;;;;;;50.47;25.67;;;;;;;;;;5071326;28;20037;-48
2022/01/11 12:05:15;;;;;;;73.88;33.75;;;;;;;;;;5071561;28;20036;-47
2022/01/11 12:07:45;;;;;;;31.47;16.30;;;;;;;;;;5071606;28;20533;-50
2022/01/11 12:10:25;;;;;;;42.13;21.95;;;;;;;;;;5071478;28;20050;-48
2022/01/11 12:12:54;;;;;;;33.35;18.25;;;;;;;;;;5071434;28;20529;-48
2022/01/11 12:15:23;;;;;;;78.78;30.48;;;;;;;;;;5071086;28;20040;-51
2022/01/11 12:17:58;;;;;;;63.17;28.30;;;;;;;;;;5071753;28;20024;-52
2022/01/11 12:20:42;;;;;;;61.90;28.27;;;;;;;;;;5071321;28;20543;-51
2022/01/11 12:23:09;;;;;;;61.75;24.85;;;;;;;;;;5071426;28;20433;-54
2022/01/11 12:25:42;;;;;;;71.15;30.95;;;;;;;;;;5071322;28;20039;-54
2022/01/11 12:28:08;;;;;;;74.82;32.17;;;;;;;;;;5071129;28;20494;-50
2022/01/11 12:30:37;;;;;;;66.07;26.20;;;;;;;;;;5071568;28;20478;-53
2022/01/11 12:33:08;;;;;;;45.50;20.17;;;;;;;;;;5071284;28;20033;-53
2022/01/11 12:35:34;;;;;;;53.75;24.63;;;;;;;;;;5071519;28;20063;-48
2022/01/11 12:38:08;;;;;;;50.95;22.67;;;;;;;;;;5071770;28;20082;-50
2022/01/11 12:40:40;;;;;;;44.63;20.10;;;;;;;;;;5090997;28;20040;-53
2022/01/11 12:43:06;;;;;;;;;;;;;;;;;;5094126;28;20017;-49
2022/01/11 12:45:50;;;;;;;54.75;20.35;;;;;;;;;;5093457;28;19950;-53
2022/01/11 12:48:36;;;;;;;39.75;18.38;;;;;;;;;;5093674;28;20024;-53
2022/01/11 12:51:02;;;;;;;34.85;17.33;;;;;;;;;;5093557;28;20024;-54
2022/01/11 12:53:29;;;;;;;37.60;18.15;;;;;;;;;;5093651;28;20024;-50
2022/01/11 12:55:57;;;;;;;31.30;15.80;;;;;;;;;;5093300;28;20021;-54
2022/01/11 12:58:24;;;;;;;42.25;20.30;;;;;;;;;;5093610;28;20033;-52
2022/01/11 13:00:51;;;;;;;39.60;19.33;;;;;;;;;;5093224;28;20115;-48
2022/01/11 13:03:19;;;;;;;43.47;19.58;;;;;;;;;;5093519;28;20042;-50
2022/01/11 13:05:45;;;;;;;31.20;15.95;;;;;;;;;;5093483;28;20031;-48
2022/01/11 13:08:11;;;;;;;33.85;16.15;;;;;;;;;;5093369;28;20016;-48
2022/01/11 13:10:39;;;;;;;41.65;19.77;;;;;;;;;;5093133;28;20107;-50
2022/01/11 13:13:15;;;;;;;33.85;18.55;;;;;;;;;;5093515;28;20608;-50
2022/01/11 13:15:47;;;;;;;33.55;17.27;;;;;;;;;;5093515;28;20458;-50
2022/01/11 13:18:13;;;;;;;36.97;17.67;;;;;;;;;;5093478;28;20089;-51
2022/01/11 13:20:39;;;;;;;37.15;18.02;;;;;;;;;;5093086;28;20132;-52
2022/01/11 13:23:17;;;;;;;33.13;17.58;;;;;;;;;;5093228;28;20065;-49
2022/01/11 13:25:49;;;;;;;29.42;15.88;;;;;;;;;;5093227;28;20032;-52
2022/01/11 13:28:32;;;;;;;29.33;16.00;;;;;;;;;;5092958;28;20194;-54
2022/01/11 13:30:59;;;;;;;38.47;18.67;;;;;;;;;;5093198;28;20075;-53
2022/01/11 13:33:32;;;;;;;35.97;18.50;;;;;;;;;;5093100;28;20027;-51
2022/01/11 13:35:59;;;;;;;36.30;17.80;;;;;;;;;;5093039;28;20149;-54
2022/01/11 13:38:33;;;;;;;31.58;15.07;;;;;;;;;;5093216;28;20149;-55
2022/01/11 13:40:59;;;;;;;25.65;14.30;;;;;;;;;;5092859;28;20505;-53
2022/01/11 13:43:32;;;;;;;30.08;13.52;;;;;;;;;;5092993;28;20466;-54
2022/01/11 13:45:58;;;;;;;27.05;14.10;;;;;;;;;;5096519;28;20031;-51
2022/01/11 13:48:24;;;;;;;30.05;15.48;;;;;;;;;;5096957;28;20111;-52
2022/01/11 13:50:58;;;;;;;26.60;13.05;;;;;;;;;;5096658;28;20032;-51
2022/01/11 13:53:26;;;;;;;23.23;13.25;;;;;;;;;;5096963;28;20035;-55
2022/01/11 13:55:53;;;;;;;25.10;12.52;;;;;;;;;;5096548;28;20024;-53
2022/01/11 13:58:20;;;;;;;24.10;13.45;;;;;;;;;;5096995;28;20052;-53
2022/01/11 14:00:47;;;;;;;26.30;13.95;;;;;;;;;;5095635;28;20063;-49
2022/01/11 14:03:18;;;;;;;27.02;13.93;;;;;;;;;;5095794;28;20038;-52
2022/01/11 14:05:45;;;;;;;21.08;12.50;;;;;;;;;;5095961;28;20024;-50
2022/01/11 14:08:12;;;;;;;32.00;14.90;;;;;;;;;;5095887;28;20021;-52
2022/01/11 14:10:41;;;;;;;26.98;13.80;;;;;;;;;;5096176;28;20051;-52
2022/01/11 14:13:16;;;;;;;33.80;16.77;;;;;;;;;;5096017;28;20024;-52
2022/01/11 14:15:43;;;;;;;41.15;18.80;;;;;;;;;;5094039;28;20082;-52
2022/01/11 14:18:14;;;;;;;36.85;19.20;;;;;;;;;;5095574;28;20466;-54
2022/01/11 14:20:41;;;;;;;;;;;;;;;;;;5094280;28;20032;-51
2022/01/11 14:23:18;;;;;;;42.05;20.02;;;;;;;;;;5095749;28;20332;-52
2022/01/11 14:25:51;;;;;;;52.47;26.65;;;;;;;;;;5092741;28;20481;-54
2022/01/11 14:28:38;;;;;;;46.97;21.90;;;;;;;;;;5092954;28;20410;-51